Lima, Illinois
Current Conditions -  °F | °C
As of 5:54 PM on Thursday 27 Nov 2014 (Local Time) from KUIN Reporting Station
Clear Clear  
Wind Chill: 11°   Ceiling: Unl
Heat Index: 18°   Visibility: 10mi
Dew Point: 10°   Wind: 5mph
Humidity: 71%   Direction: 10°N
Pressure: 30.46"   Gusts: NA
Location:  40.18°N, 91.38°W
Report Text: KUIN 272354Z AUTO 01004KT 10SM CLR M08/M12 A3046 RMK AO2 SLP325 T10781122 11039 21078 58001
Loading
Personal Weather Stations






























Interactive Weather Map New forecast layout! Learn more

10-Day Weather Forecast

Advertisements
Track Severe Weather on mobile